sensor_id;sensor_type;location;lat;lon;timestamp;pressure;altitude;pressure_sealevel;temperature;humidity
66668;BME280;57205;51.438;-2.006;2023-02-04T00:01:07;102956.84;;;8.77;100.00
66668;BME280;57205;51.438;-2.006;2023-02-04T00:03:33;102949.88;;;8.76;100.00
66668;BME280;57205;51.438;-2.006;2023-02-04T00:05:58;102948.03;;;8.77;100.00
66668;BME280;57205;51.438;-2.006;2023-02-04T00:08:23;102942.06;;;8.75;100.00
66668;BME280;57205;51.438;-2.006;2023-02-04T00:10:48;102949.03;;;8.69;100.00
66668;BME280;57205;51.438;-2.006;2023-02-04T00:13:14;102947.34;;;8.68;100.00
66668;BME280;57205;51.438;-2.006;2023-02-04T00:15:39;102946.53;;;8.68;100.00
66668;BME280;57205;51.438;-2.006;2023-02-04T00:18:04;102949.38;;;8.66;100.00
66668;BME280;57205;51.438;-2.006;2023-02-04T00:20:31;102946.91;;;8.65;100.00
66668;BME280;57205;51.438;-2.006;2023-02-04T00:22:56;102947.13;;;8.63;100.00
66668;BME280;57205;51.438;-2.006;2023-02-04T00:25:21;102945.09;;;8.65;100.00
66668;BME280;57205;51.438;-2.006;2023-02-04T00:27:47;102945.09;;;8.65;100.00
66668;BME280;57205;51.438;-2.006;2023-02-04T00:30:12;102946.09;;;8.64;100.00
66668;BME280;57205;51.438;-2.006;2023-02-04T00:32:37;102947.13;;;8.63;100.00
66668;BME280;57205;51.438;-2.006;2023-02-04T00:35:03;102954.50;;;8.61;100.00
66668;BME280;57205;51.438;-2.006;2023-02-04T00:37:31;102948.53;;;8.59;100.00
66668;BME280;57205;51.438;-2.006;2023-02-04T00:39:56;102954.25;;;8.56;100.00
66668;BME280;57205;51.438;-2.006;2023-02-04T00:42:21;102955.91;;;8.57;100.00
66668;BME280;57205;51.438;-2.006;2023-02-04T00:44:47;102955.06;;;8.57;100.00
66668;BME280;57205;51.438;-2.006;2023-02-04T00:47:12;102954.25;;;8.56;100.00
66668;BME280;57205;51.438;-2.006;2023-02-04T00:49:37;102959.59;;;8.56;100.00
66668;BME280;57205;51.438;-2.006;2023-02-04T00:52:03;102962.88;;;8.58;100.00
66668;BME280;57205;51.438;-2.006;2023-02-04T00:54:28;102956.94;;;8.56;100.00
66668;BME280;57205;51.438;-2.006;2023-02-04T00:56:53;102957.09;;;8.55;100.00
66668;BME280;57205;51.438;-2.006;2023-02-04T00:59:19;102951.97;;;8.53;100.00
66668;BME280;57205;51.438;-2.006;2023-02-04T01:01:44;102958.13;;;8.54;100.00
66668;BME280;57205;51.438;-2.006;2023-02-04T01:04:09;102959.97;;;8.53;100.00
66668;BME280;57205;51.438;-2.006;2023-02-04T01:06:35;102964.66;;;8.51;100.00
66668;BME280;57205;51.438;-2.006;2023-02-04T01:09:01;102968.16;;;8.52;100.00
66668;BME280;57205;51.438;-2.006;2023-02-04T01:11:26;102971.28;;;8.55;100.00
66668;BME280;57205;51.438;-2.006;2023-02-04T01:13:52;102963.03;;;8.50;100.00
66668;BME280;57205;51.438;-2.006;2023-02-04T01:16:18;102967.97;;;8.53;100.00
66668;BME280;57205;51.438;-2.006;2023-02-04T01:18:43;102972.47;;;8.53;100.00
66668;BME280;57205;51.438;-2.006;2023-02-04T01:21:08;102967.53;;;8.50;100.00
66668;BME280;57205;51.438;-2.006;2023-02-04T01:23:34;102973.50;;;8.52;100.00
66668;BME280;57205;51.438;-2.006;2023-02-04T01:25:59;102973.31;;;8.53;100.00
66668;BME280;57205;51.438;-2.006;2023-02-04T01:28:24;102983.53;;;8.50;100.00
66668;BME280;57205;51.438;-2.006;2023-02-04T01:30:50;102982.91;;;8.48;100.00
66668;BME280;57205;51.438;-2.006;2023-02-04T01:33:15;102981.28;;;8.47;100.00
66668;BME280;57205;51.438;-2.006;2023-02-04T01:35:40;102976.72;;;8.47;100.00
66668;BME280;57205;51.438;-2.006;2023-02-04T01:38:06;102982.91;;;8.48;100.00
66668;BME280;57205;51.438;-2.006;2023-02-04T01:40:31;102982.28;;;8.46;100.00
66668;BME280;57205;51.438;-2.006;2023-02-04T01:42:56;102988.84;;;8.43;100.00
66668;BME280;57205;51.438;-2.006;2023-02-04T01:45:22;102992.31;;;8.44;100.00
66668;BME280;57205;51.438;-2.006;2023-02-04T01:47:47;102994.97;;;8.44;100.00
66668;BME280;57205;51.438;-2.006;2023-02-04T01:50:13;102996.00;;;8.43;100.00
66668;BME280;57205;51.438;-2.006;2023-02-04T01:52:39;102997.84;;;8.42;100.00
66668;BME280;57205;51.438;-2.006;2023-02-04T01:55:09;102999.66;;;8.42;100.00
66668;BME280;57205;51.438;-2.006;2023-02-04T01:57:35;103002.53;;;8.40;100.00
66668;BME280;57205;51.438;-2.006;2023-02-04T02:00:00;102993.09;;;8.38;100.00
66668;BME280;57205;51.438;-2.006;2023-02-04T02:02:39;102995.94;;;8.36;100.00
66668;BME280;57205;51.438;-2.006;2023-02-04T02:05:05;102992.47;;;8.36;100.00
66668;BME280;57205;51.438;-2.006;2023-02-04T02:07:31;102998.59;;;8.36;100.00
66668;BME280;57205;51.438;-2.006;2023-02-04T02:09:56;103001.25;;;8.36;100.00
66668;BME280;57205;51.438;-2.006;2023-02-04T02:12:21;103000.81;;;8.33;100.00
66668;BME280;57205;51.438;-2.006;2023-02-04T02:14:47;102998.34;;;8.31;100.00
66668;BME280;57205;51.438;-2.006;2023-02-04T02:17:12;102994.06;;;8.30;100.00
66668;BME280;57205;51.438;-2.006;2023-02-04T02:19:37;102993.41;;;8.28;100.00
66668;BME280;57205;51.438;-2.006;2023-02-04T02:22:12;102998.53;;;8.30;100.00
66668;BME280;57205;51.438;-2.006;2023-02-04T02:24:39;102992.19;;;8.31;100.00
66668;BME280;57205;51.438;-2.006;2023-02-04T02:27:05;102994.06;;;8.30;100.00
66668;BME280;57205;51.438;-2.006;2023-02-04T02:29:32;102992.38;;;8.29;100.00
66668;BME280;57205;51.438;-2.006;2023-02-04T02:31:58;102989.28;;;8.26;100.00
66668;BME280;57205;51.438;-2.006;2023-02-04T02:34:23;102985.09;;;8.23;100.00
66668;BME280;57205;51.438;-2.006;2023-02-04T02:36:49;102987.53;;;8.18;100.00
66668;BME280;57205;51.438;-2.006;2023-02-04T02:39:15;102985.88;;;8.17;100.00
66668;BME280;57205;51.438;-2.006;2023-02-04T02:41:40;102981.50;;;8.10;100.00
66668;BME280;57205;51.438;-2.006;2023-02-04T02:44:05;102982.06;;;8.05;100.00
66668;BME280;57205;51.438;-2.006;2023-02-04T02:46:31;102986.75;;;8.03;100.00
66668;BME280;57205;51.438;-2.006;2023-02-04T02:48:56;103000.28;;;8.02;100.00
66668;BME280;57205;51.438;-2.006;2023-02-04T02:51:21;102994.75;;;8.03;100.00
66668;BME280;57205;51.438;-2.006;2023-02-04T02:53:49;103001.31;;;8.01;100.00
66668;BME280;57205;51.438;-2.006;2023-02-04T02:56:15;102989.81;;;8.00;100.00
66668;BME280;57205;51.438;-2.006;2023-02-04T02:58:41;102995.78;;;8.02;100.00
66668;BME280;57205;51.438;-2.006;2023-02-04T03:01:07;102997.81;;;8.00;100.00
66668;BME280;57205;51.438;-2.006;2023-02-04T03:03:34;102998.63;;;8.01;100.00
66668;BME280;57205;51.438;-2.006;2023-02-04T03:06:05;103000.47;;;8.00;100.00
66668;BME280;57205;51.438;-2.006;2023-02-04T03:08:32;103002.09;;;8.01;100.00
66668;BME280;57205;51.438;-2.006;2023-02-04T03:10:58;102998.00;;;7.99;100.00
66668;BME280;57205;51.438;-2.006;2023-02-04T03:13:23;102995.13;;;8.00;100.00
66668;BME280;57205;51.438;-2.006;2023-02-04T03:15:49;102992.66;;;7.99;100.00
66668;BME280;57205;51.438;-2.006;2023-02-04T03:18:15;102995.97;;;8.01;100.00
66668;BME280;57205;51.438;-2.006;2023-02-04T03:20:42;102991.84;;;7.98;100.00
66668;BME280;57205;51.438;-2.006;2023-02-04T03:23:08;102995.34;;;7.99;100.00
66668;BME280;57205;51.438;-2.006;2023-02-04T03:25:33;103004.13;;;7.99;100.00
66668;BME280;57205;51.438;-2.006;2023-02-04T03:27:58;102994.31;;;8.00;100.00
66668;BME280;57205;51.438;-2.006;2023-02-04T03:30:24;103002.09;;;8.01;100.00
66668;BME280;57205;51.438;-2.006;2023-02-04T03:32:50;103002.75;;;8.03;100.00
66668;BME280;57205;51.438;-2.006;2023-02-04T03:35:15;102997.41;;;8.03;100.00
66668;BME280;57205;51.438;-2.006;2023-02-04T03:37:41;102993.13;;;8.02;100.00
66668;BME280;57205;51.438;-2.006;2023-02-04T03:40:06;102991.63;;;8.00;100.00
66668;BME280;57205;51.438;-2.006;2023-02-04T03:42:32;102984.84;;;7.97;100.00
66668;BME280;57205;51.438;-2.006;2023-02-04T03:44:57;102984.22;;;7.95;100.00
66668;BME280;57205;51.438;-2.006;2023-02-04T03:47:22;102988.28;;;7.91;100.00
66668;BME280;57205;51.438;-2.006;2023-02-04T03:49:48;102985.97;;;7.88;100.00
66668;BME280;57205;51.438;-2.006;2023-02-04T03:52:13;102979.63;;;7.89;100.00
66668;BME280;57205;51.438;-2.006;2023-02-04T03:54:38;102984.97;;;7.89;100.00
66668;BME280;57205;51.438;-2.006;2023-02-04T03:57:04;102987.84;;;7.87;100.00
66668;BME280;57205;51.438;-2.006;2023-02-04T03:59:29;102994.81;;;7.88;100.00
66668;BME280;57205;51.438;-2.006;2023-02-04T04:01:54;102996.09;;;7.93;100.00
66668;BME280;57205;51.438;-2.006;2023-02-04T04:04:19;102992.38;;;7.93;100.00
66668;BME280;57205;51.438;-2.006;2023-02-04T04:06:45;103001.22;;;7.94;100.00
66668;BME280;57205;51.438;-2.006;2023-02-04T04:09:10;103002.25;;;7.93;100.00
66668;BME280;57205;51.438;-2.006;2023-02-04T04:11:35;102995.88;;;7.94;100.00
66668;BME280;57205;51.438;-2.006;2023-02-04T04:14:01;103004.72;;;7.95;100.00
66668;BME280;57205;51.438;-2.006;2023-02-04T04:16:26;102998.34;;;7.96;100.00
66668;BME280;57205;51.438;-2.006;2023-02-04T04:18:52;103005.16;;;7.98;100.00
66668;BME280;57205;51.438;-2.006;2023-02-04T04:21:17;103009.66;;;7.98;100.00
66668;BME280;57205;51.438;-2.006;2023-02-04T04:23:42;103009.47;;;7.99;100.00
66668;BME280;57205;51.438;-2.006;2023-02-04T04:26:08;103010.50;;;7.98;100.00
66668;BME280;57205;51.438;-2.006;2023-02-04T04:28:33;103009.31;;;8.01;100.00
66668;BME280;57205;51.438;-2.006;2023-02-04T04:30:58;103011.50;;;7.97;100.00
66668;BME280;57205;51.438;-2.006;2023-02-04T04:33:23;103007.00;;;7.98;100.00
66668;BME280;57205;51.438;-2.006;2023-02-04T04:35:49;103001.03;;;7.96;100.00
66668;BME280;57205;51.438;-2.006;2023-02-04T04:38:14;103002.88;;;7.95;100.00
66668;BME280;57205;51.438;-2.006;2023-02-04T04:40:39;103005.91;;;7.92;100.00
66668;BME280;57205;51.438;-2.006;2023-02-04T04:43:04;103006.94;;;7.91;100.00
66668;BME280;57205;51.438;-2.006;2023-02-04T04:45:30;103006.09;;;7.90;100.00
66668;BME280;57205;51.438;-2.006;2023-02-04T04:47:55;103005.28;;;7.90;100.00
66668;BME280;57205;51.438;-2.006;2023-02-04T04:50:20;103014.66;;;7.86;100.00
66668;BME280;57205;51.438;-2.006;2023-02-04T04:52:45;103007.69;;;7.85;100.00
66668;BME280;57205;51.438;-2.006;2023-02-04T04:55:11;103013.66;;;7.87;100.00
66668;BME280;57205;51.438;-2.006;2023-02-04T04:57:36;103011.97;;;7.86;100.00
66668;BME280;57205;51.438;-2.006;2023-02-04T05:00:02;103017.97;;;7.88;100.00
66668;BME280;57205;51.438;-2.006;2023-02-04T05:02:27;103011.38;;;7.84;100.00
66668;BME280;57205;51.438;-2.006;2023-02-04T05:04:52;103022.03;;;7.84;100.00
66668;BME280;57205;51.438;-2.006;2023-02-04T05:07:18;103016.88;;;7.82;100.00
66668;BME280;57205;51.438;-2.006;2023-02-04T05:09:43;103015.41;;;7.80;100.00
66668;BME280;57205;51.438;-2.006;2023-02-04T05:12:08;103022.59;;;7.79;100.00
66668;BME280;57205;51.438;-2.006;2023-02-04T05:14:33;103018.09;;;7.80;100.00
66668;BME280;57205;51.438;-2.006;2023-02-04T05:16:59;103013.41;;;7.82;100.00
66668;BME280;57205;51.438;-2.006;2023-02-04T05:19:24;103005.75;;;7.79;100.00
66668;BME280;57205;51.438;-2.006;2023-02-04T05:21:50;103008.41;;;7.79;100.00
66668;BME280;57205;51.438;-2.006;2023-02-04T05:24:15;103010.09;;;7.80;100.00
66668;BME280;57205;51.438;-2.006;2023-02-04T05:26:40;103016.41;;;7.79;100.00
66668;BME280;57205;51.438;-2.006;2023-02-04T05:29:05;103007.78;;;7.77;100.00
66668;BME280;57205;51.438;-2.006;2023-02-04T05:31:31;103013.88;;;7.71;100.00
66668;BME280;57205;51.438;-2.006;2023-02-04T05:33:56;103011.38;;;7.69;100.00
66668;BME280;57205;51.438;-2.006;2023-02-04T05:36:21;103004.22;;;7.70;100.00
66668;BME280;57205;51.438;-2.006;2023-02-04T05:38:47;103012.03;;;7.71;100.00
66668;BME280;57205;51.438;-2.006;2023-02-04T05:41:12;103003.03;;;7.72;100.00
66668;BME280;57205;51.438;-2.006;2023-02-04T05:43:37;103012.47;;;7.75;100.00
66668;BME280;57205;51.438;-2.006;2023-02-04T05:46:03;103012.47;;;7.75;100.00
66668;BME280;57205;51.438;-2.006;2023-02-04T05:48:29;103004.47;;;7.75;100.00
66668;BME280;57205;51.438;-2.006;2023-02-04T05:50:54;103012.47;;;7.75;100.00
66668;BME280;57205;51.438;-2.006;2023-02-04T05:53:19;103017.25;;;7.79;100.00
66668;BME280;57205;51.438;-2.006;2023-02-04T05:55:44;103014.59;;;7.79;100.00
66668;BME280;57205;51.438;-2.006;2023-02-04T05:58:10;103022.38;;;7.81;100.00
66668;BME280;57205;51.438;-2.006;2023-02-04T06:00:35;103018.72;;;7.82;100.00
66668;BME280;57205;51.438;-2.006;2023-02-04T06:03:00;103015.28;;;7.88;100.00
66668;BME280;57205;51.438;-2.006;2023-02-04T06:05:26;103025.16;;;7.87;100.00
66668;BME280;57205;51.438;-2.006;2023-02-04T06:07:51;103027.63;;;7.89;100.00
66668;BME280;57205;51.438;-2.006;2023-02-04T06:10:16;103023.72;;;7.91;100.00
66668;BME280;57205;51.438;-2.006;2023-02-04T06:12:42;103025.59;;;7.91;100.00
66668;BME280;57205;51.438;-2.006;2023-02-04T06:15:07;103029.25;;;7.90;100.00
66668;BME280;57205;51.438;-2.006;2023-02-04T06:17:32;103029.72;;;7.93;100.00
66668;BME280;57205;51.438;-2.006;2023-02-04T06:19:58;103027.03;;;7.93;100.00
66668;BME280;57205;51.438;-2.006;2023-02-04T06:22:23;103036.72;;;7.95;100.00
66668;BME280;57205;51.438;-2.006;2023-02-04T06:24:50;103033.22;;;7.94;100.00
66668;BME280;57205;51.438;-2.006;2023-02-04T06:27:15;103040.56;;;7.92;100.00
66668;BME280;57205;51.438;-2.006;2023-02-04T06:29:47;103038.91;;;7.91;100.00
66668;BME280;57205;51.438;-2.006;2023-02-04T06:32:12;103042.41;;;7.91;100.00
66668;BME280;57205;51.438;-2.006;2023-02-04T06:34:37;103042.59;;;7.90;100.00
66668;BME280;57205;51.438;-2.006;2023-02-04T06:37:02;103046.91;;;7.91;100.00
66668;BME280;57205;51.438;-2.006;2023-02-04T06:39:28;103048.56;;;7.92;100.00
66668;BME280;57205;51.438;-2.006;2023-02-04T06:41:53;103046.53;;;7.94;100.00
66668;BME280;57205;51.438;-2.006;2023-02-04T06:44:18;103050.03;;;7.95;100.00
66668;BME280;57205;51.438;-2.006;2023-02-04T06:46:43;103052.69;;;7.95;100.00
66668;BME280;57205;51.438;-2.006;2023-02-04T06:49:09;103042.41;;;7.91;100.00
66668;BME280;57205;51.438;-2.006;2023-02-04T06:51:34;103041.59;;;7.91;100.00
66668;BME280;57205;51.438;-2.006;2023-02-04T06:53:59;103041.31;;;7.86;100.00
66668;BME280;57205;51.438;-2.006;2023-02-04T06:56:24;103048.69;;;7.84;100.00
66668;BME280;57205;51.438;-2.006;2023-02-04T06:58:53;103047.47;;;7.86;100.00
66668;BME280;57205;51.438;-2.006;2023-02-04T07:01:18;103048.69;;;7.84;100.00
66668;BME280;57205;51.438;-2.006;2023-02-04T07:03:43;103052.16;;;7.84;100.00
66668;BME280;57205;51.438;-2.006;2023-02-04T07:06:08;103054.03;;;7.84;100.00
66668;BME280;57205;51.438;-2.006;2023-02-04T07:08:34;103049.69;;;7.83;100.00
66668;BME280;57205;51.438;-2.006;2023-02-04T07:10:59;103054.63;;;7.86;100.00
66668;BME280;57205;51.438;-2.006;2023-02-04T07:13:24;103051.97;;;7.86;100.00
66668;BME280;57205;51.438;-2.006;2023-02-04T07:15:50;103052.81;;;7.86;100.00
66668;BME280;57205;51.438;-2.006;2023-02-04T07:18:16;103046.81;;;7.84;100.00
66668;BME280;57205;51.438;-2.006;2023-02-04T07:20:43;103051.81;;;7.87;100.00
66668;BME280;57205;51.438;-2.006;2023-02-04T07:23:09;103054.63;;;7.86;100.00
66668;BME280;57205;51.438;-2.006;2023-02-04T07:25:34;103054.47;;;7.87;100.00
66668;BME280;57205;51.438;-2.006;2023-02-04T07:27:59;103055.66;;;7.85;100.00
66668;BME280;57205;51.438;-2.006;2023-02-04T07:30:25;103050.72;;;7.82;100.00
66668;BME280;57205;51.438;-2.006;2023-02-04T07:32:51;103056.50;;;7.85;100.00
66668;BME280;57205;51.438;-2.006;2023-02-04T07:35:16;103059.69;;;7.81;100.00
66668;BME280;57205;51.438;-2.006;2023-02-04T07:37:41;103062.56;;;7.79;100.00
66668;BME280;57205;51.438;-2.006;2023-02-04T07:40:07;103064.03;;;7.82;100.00
66668;BME280;57205;51.438;-2.006;2023-02-04T07:42:33;103064.03;;;7.82;100.00
66668;BME280;57205;51.438;-2.006;2023-02-04T07:44:58;103063.66;;;7.85;100.00
66668;BME280;57205;51.438;-2.006;2023-02-04T07:47:23;103071.66;;;7.85;100.00
66668;BME280;57205;51.438;-2.006;2023-02-04T07:49:49;103077.81;;;7.85;100.00
66668;BME280;57205;51.438;-2.006;2023-02-04T07:52:15;103078.00;;;7.84;100.00
66668;BME280;57205;51.438;-2.006;2023-02-04T07:54:40;103082.06;;;7.80;100.00
66668;BME280;57205;51.438;-2.006;2023-02-04T07:57:05;103083.69;;;7.81;100.00
66668;BME280;57205;51.438;-2.006;2023-02-04T07:59:30;103085.34;;;7.82;100.00
66668;BME280;57205;51.438;-2.006;2023-02-04T08:01:56;103080.66;;;7.84;100.00
66668;BME280;57205;51.438;-2.006;2023-02-04T08:04:21;103085.16;;;7.83;100.00
66668;BME280;57205;51.438;-2.006;2023-02-04T08:06:46;103091.78;;;7.87;100.00
66668;BME280;57205;51.438;-2.006;2023-02-04T08:09:11;103089.28;;;7.86;100.00
66668;BME280;57205;51.438;-2.006;2023-02-04T08:11:37;103093.03;;;7.91;100.00
66668;BME280;57205;51.438;-2.006;2023-02-04T08:14:02;103102.06;;;7.90;100.00
66668;BME280;57205;51.438;-2.006;2023-02-04T08:16:27;103098.94;;;7.87;100.00
66668;BME280;57205;51.438;-2.006;2023-02-04T08:18:52;103099.34;;;7.84;100.00
66668;BME280;57205;51.438;-2.006;2023-02-04T08:21:18;103102.34;;;7.81;100.00
66668;BME280;57205;51.438;-2.006;2023-02-04T08:23:43;103100.59;;;7.88;100.00
66668;BME280;57205;51.438;-2.006;2023-02-04T08:26:08;103104.47;;;7.85;100.00
66668;BME280;57205;51.438;-2.006;2023-02-04T08:28:35;103106.94;;;7.87;100.00
66668;BME280;57205;51.438;-2.006;2023-02-04T08:31:00;103106.94;;;7.87;100.00
66668;BME280;57205;51.438;-2.006;2023-02-04T08:33:27;103109.59;;;7.87;100.00
66668;BME280;57205;51.438;-2.006;2023-02-04T08:35:53;103109.03;;;7.91;100.00
66668;BME280;57205;51.438;-2.006;2023-02-04T08:38:18;103108.03;;;7.93;100.00
66668;BME280;57205;51.438;-2.006;2023-02-04T08:40:43;103111.34;;;7.95;100.00
66668;BME280;57205;51.438;-2.006;2023-02-04T08:43:09;103120.19;;;7.95;100.00
66668;BME280;57205;51.438;-2.006;2023-02-04T08:45:34;103118.78;;;7.99;100.00
66668;BME280;57205;51.438;-2.006;2023-02-04T08:47:59;103123.09;;;8.00;100.00
66668;BME280;57205;51.438;-2.006;2023-02-04T08:50:25;103126.88;;;8.06;100.00
66668;BME280;57205;51.438;-2.006;2023-02-04T08:52:50;103126.69;;;8.07;100.00
66668;BME280;57205;51.438;-2.006;2023-02-04T08:55:16;103129.34;;;8.07;100.00
66668;BME280;57205;51.438;-2.006;2023-02-04T08:57:41;103129.53;;;8.06;100.00
66668;BME280;57205;51.438;-2.006;2023-02-04T09:00:06;103127.50;;;8.08;100.00
66668;BME280;57205;51.438;-2.006;2023-02-04T09:02:32;103133.50;;;8.10;100.00
66668;BME280;57205;51.438;-2.006;2023-02-04T09:04:57;103133.69;;;8.08;100.00
66668;BME280;57205;51.438;-2.006;2023-02-04T09:07:22;103121.59;;;8.12;100.00
66668;BME280;57205;51.438;-2.006;2023-02-04T09:09:48;103124.09;;;8.14;100.00
66668;BME280;57205;51.438;-2.006;2023-02-04T09:12:13;103129.91;;;8.17;100.00
66668;BME280;57205;51.438;-2.006;2023-02-04T09:14:38;103127.38;;;8.16;100.00
66668;BME280;57205;51.438;-2.006;2023-02-04T09:17:03;103135.88;;;8.19;100.00
66668;BME280;57205;51.438;-2.006;2023-02-04T09:19:29;103137.13;;;8.23;100.00
66668;BME280;57205;51.438;-2.006;2023-02-04T09:21:55;103139.09;;;8.29;100.00
66668;BME280;57205;51.438;-2.006;2023-02-04T09:24:20;103138.09;;;8.30;100.00
66668;BME280;57205;51.438;-2.006;2023-02-04T09:26:49;103144.06;;;8.32;100.00
66668;BME280;57205;51.438;-2.006;2023-02-04T09:29:14;103145.31;;;8.36;100.00
66668;BME280;57205;51.438;-2.006;2023-02-04T09:31:39;103150.66;;;8.36;100.00
66668;BME280;57205;51.438;-2.006;2023-02-04T09:34:05;103146.97;;;8.37;100.00
66668;BME280;57205;51.438;-2.006;2023-02-04T09:36:30;103153.97;;;8.38;100.00
66668;BME280;57205;51.438;-2.006;2023-02-04T09:38:58;103152.56;;;8.42;100.00
66668;BME280;57205;51.438;-2.006;2023-02-04T09:41:23;103155.88;;;8.44;100.00
66668;BME280;57205;51.438;-2.006;2023-02-04T09:43:48;103166.56;;;8.44;100.00
66668;BME280;57205;51.438;-2.006;2023-02-04T09:46:18;103157.72;;;8.44;100.00
66668;BME280;57205;51.438;-2.006;2023-02-04T09:48:43;103161.03;;;8.46;100.00
66668;BME280;57205;51.438;-2.006;2023-02-04T09:51:09;103158.00;;;8.49;100.00
66668;BME280;57205;51.438;-2.006;2023-02-04T09:53:37;103155.78;;;8.52;100.00
66668;BME280;57205;51.438;-2.006;2023-02-04T09:56:02;103158.44;;;8.52;100.00
66668;BME280;57205;51.438;-2.006;2023-02-04T09:58:28;103158.25;;;8.54;100.00
66668;BME280;57205;51.438;-2.006;2023-02-04T10:00:57;103159.88;;;8.55;100.00
66668;BME280;57205;51.438;-2.006;2023-02-04T10:03:22;103157.41;;;8.53;100.00
66668;BME280;57205;51.438;-2.006;2023-02-04T10:05:48;103159.72;;;8.56;100.00
66668;BME280;57205;51.438;-2.006;2023-02-04T10:08:15;103160.34;;;8.58;100.00
66668;BME280;57205;51.438;-2.006;2023-02-04T10:10:40;103167.16;;;8.61;100.00
66668;BME280;57205;51.438;-2.006;2023-02-04T10:13:07;103161.81;;;8.61;100.00
66668;BME280;57205;51.438;-2.006;2023-02-04T10:15:32;103164.94;;;8.64;100.00
66668;BME280;57205;51.438;-2.006;2023-02-04T10:18:00;103164.56;;;8.67;100.00
66668;BME280;57205;51.438;-2.006;2023-02-04T10:20:27;103172.38;;;8.69;100.00
66668;BME280;57205;51.438;-2.006;2023-02-04T10:22:53;103173.03;;;8.71;100.00
66668;BME280;57205;51.438;-2.006;2023-02-04T10:25:20;103179.16;;;8.71;100.00
66668;BME280;57205;51.438;-2.006;2023-02-04T10:27:53;103181.47;;;8.74;100.00
66668;BME280;57205;51.438;-2.006;2023-02-04T10:30:29;103182.47;;;8.73;100.00
66668;BME280;57205;51.438;-2.006;2023-02-04T10:32:59;103172.00;;;8.72;100.00
66668;BME280;57205;51.438;-2.006;2023-02-04T10:35:24;103177.34;;;8.72;100.00
66668;BME280;57205;51.438;-2.006;2023-02-04T10:38:02;103169.13;;;8.73;100.00
66668;BME280;57205;51.438;-2.006;2023-02-04T10:40:33;103168.78;;;8.76;100.00
66668;BME280;57205;51.438;-2.006;2023-02-04T10:43:05;103167.75;;;8.77;100.00
66668;BME280;57205;51.438;-2.006;2023-02-04T10:45:31;103173.31;;;8.82;100.00
66668;BME280;57205;51.438;-2.006;2023-02-04T10:47:56;103174.34;;;8.81;100.00
66668;BME280;57205;51.438;-2.006;2023-02-04T10:50:22;103170.50;;;8.84;100.00
66668;BME280;57205;51.438;-2.006;2023-02-04T10:52:53;103166.34;;;8.81;100.00
66668;BME280;57205;51.438;-2.006;2023-02-04T10:55:39;103172.13;;;8.85;100.00
66668;BME280;57205;51.438;-2.006;2023-02-04T10:58:04;103167.63;;;8.85;100.00
66668;BME280;57205;51.438;-2.006;2023-02-04T11:00:30;103170.50;;;8.84;100.00
66668;BME280;57205;51.438;-2.006;2023-02-04T11:02:57;103175.25;;;8.88;100.00
66668;BME280;57205;51.438;-2.006;2023-02-04T11:05:23;103178.56;;;8.91;100.00
66668;BME280;57205;51.438;-2.006;2023-02-04T11:07:53;103172.22;;;8.92;100.00
66668;BME280;57205;51.438;-2.006;2023-02-04T11:10:19;103168.50;;;8.93;100.00
66668;BME280;57205;51.438;-2.006;2023-02-04T11:12:57;103177.16;;;8.95;100.00
66668;BME280;57205;51.438;-2.006;2023-02-04T11:18:03;103181.31;;;8.97;100.00
66668;BME280;57205;51.438;-2.006;2023-02-04T11:20:30;103174.72;;;9.00;100.00
66668;BME280;57205;51.438;-2.006;2023-02-04T11:22:55;103176.66;;;9.06;100.00
66668;BME280;57205;51.438;-2.006;2023-02-04T11:25:30;103183.03;;;9.05;100.00
66668;BME280;57205;51.438;-2.006;2023-02-04T11:27:56;103178.88;;;9.02;100.00
66668;BME280;57205;51.438;-2.006;2023-02-04T11:30:21;103180.72;;;9.02;100.00
66668;BME280;57205;51.438;-2.006;2023-02-04T11:33:00;103184.84;;;9.04;100.00
66668;BME280;57205;51.438;-2.006;2023-02-04T11:35:26;103189.56;;;9.02;100.00
66668;BME280;57205;51.438;-2.006;2023-02-04T11:37:52;103187.78;;;9.09;100.00
66668;BME280;57205;51.438;-2.006;2023-02-04T11:42:49;103177.72;;;9.11;100.00
66668;BME280;57205;51.438;-2.006;2023-02-04T11:45:23;103181.88;;;9.14;100.00
66668;BME280;57205;51.438;-2.006;2023-02-04T11:47:49;103178.16;;;9.15;100.00
66668;BME280;57205;51.438;-2.006;2023-02-04T11:52:41;103188.28;;;9.19;100.00
66668;BME280;57205;51.438;-2.006;2023-02-04T11:55:08;103190.75;;;9.21;100.00
66668;BME280;57205;51.438;-2.006;2023-02-04T11:57:40;103189.34;;;9.25;100.00
66668;BME280;57205;51.438;-2.006;2023-02-04T12:00:16;103194.31;;;9.28;100.00
66668;BME280;57205;51.438;-2.006;2023-02-04T12:02:46;103189.59;;;9.30;100.00
66668;BME280;57205;51.438;-2.006;2023-02-04T12:05:16;103190.00;;;9.27;100.00
66668;BME280;57205;51.438;-2.006;2023-02-04T12:07:41;103188.13;;;9.27;100.00
66668;BME280;57205;51.438;-2.006;2023-02-04T12:12:40;103180.75;;;9.29;100.00
66668;BME280;57205;51.438;-2.006;2023-02-04T12:15:13;103180.59;;;9.31;100.00
66668;BME280;57205;51.438;-2.006;2023-02-04T12:17:39;103176.13;;;9.38;100.00
66668;BME280;57205;51.438;-2.006;2023-02-04T12:20:04;103179.41;;;9.40;100.00
66668;BME280;57205;51.438;-2.006;2023-02-04T12:22:29;103178.81;;;9.44;100.00
66668;BME280;57205;51.438;-2.006;2023-02-04T12:24:54;103181.06;;;9.41;100.00
66668;BME280;57205;51.438;-2.006;2023-02-04T12:27:20;103178.59;;;9.39;100.00
66668;BME280;57205;51.438;-2.006;2023-02-04T12:29:46;103180.22;;;9.40;100.00
66668;BME280;57205;51.438;-2.006;2023-02-04T12:32:11;103175.06;;;9.39;100.00
66668;BME280;57205;51.438;-2.006;2023-02-04T12:34:37;103179.03;;;9.43;100.00
66668;BME280;57205;51.438;-2.006;2023-02-04T12:37:02;103178.78;;;9.38;100.00
66668;BME280;57205;51.438;-2.006;2023-02-04T12:39:27;103174.72;;;9.42;100.00
66668;BME280;57205;51.438;-2.006;2023-02-04T12:41:52;103176.97;;;9.45;100.00
66668;BME280;57205;51.438;-2.006;2023-02-04T12:44:18;103175.94;;;9.46;100.00